Aviation Digital Data Service (ADDS)

Output produced by METARs form (0007 UTC 25 April 2019)
found at http://www.aviationweather.gov/metar/data/
 
Forecast for: MMCU (CHIHUAHUA INTL A, MX)
Text: TAF MMCU 241703Z 2418/2518 02015KT P6SM SCT030
Forecast period: 1800 UTC 24 April 2019 to 0300 UTC 25 April 2019
Forecast type: FROM: standard forecast or significant change
Winds: from the NNE (20 degrees) at 17 MPH (15 knots; 7.7 m/s)
Visibility: 6 or more miles 10+ km)
Ceiling: at least 12,000 feet AGL
Clouds: scattered clouds at 3000 feet AGL
Weather: no significant weather forecast for this period
Text: TEMPO 2420/2424 BKN030
Forecast period: 2000 UTC 24 April 2019 to 0000 UTC 25 April 2019
Forecast type: TEMPORARY: The following changes expected for less than half the time period
Visibility: missing
Ceiling: 3000 feet AGL
Clouds: broken clouds at 3000 feet AGL
Weather: no significant weather forecast for this period
Text: FM250300 23010KT P6SM SKC
Forecast period: 0300 to 1800 UTC 25 April 2019
Forecast type: FROM: standard forecast or significant change
Winds: from the SW (230 degrees) at 12 MPH (10 knots; 5.1 m/s)
Visibility: 6 or more miles 10+ km)
Clouds: clear skies
Weather: no significant weather forecast for this period